Impacts METAR Board INFO
IDs:

KTPA - Tampa Intl Arpt, FL, US

Updated at: 1512 UTC 21 Feb 2018
Potential Impact None Slight Moderate High
Time21/03Z 21/04Z 21/05Z 21/06Z 21/07Z 21/08Z 21/09Z 21/10Z 21/11Z 21/12Z 21/13Z 21/14Z 21/15Z
VIS 10 10 10
CIG -- -- --
CoverFEWFEWSCT
FltCatVFRVFRVFR
WX------
WDir110110120
WSpd 7 8 8
WGst -- -- 15
Raw hourly METARs










KTPA 211253Z 11007KT 10SM FEW008 23/21 A3037 RMK AO2 SLP284 T02280206
KTPA 211353Z 11008KT 10SM FEW012 24/21 A3038 RMK AO2 SLP288 T02440206
KTPA 201453Z 12008G15KT 10SM FEW020 SCT110 26/20 A3034 RMK AO2 SLP272 T02610200 51015